createdAt,value
2023-05-04T00:03:44.083Z,1.83
2023-05-04T00:06:13.571Z,2.20
2023-05-04T00:08:40.857Z,1.67
2023-05-04T00:11:08.501Z,1.25
2023-05-04T00:13:35.419Z,1.80
2023-05-04T00:16:02.393Z,3.53
2023-05-04T00:18:29.377Z,4.47
2023-05-04T00:20:56.288Z,4.18
2023-05-04T00:23:23.265Z,6.32
2023-05-04T00:25:50.204Z,6.47
2023-05-04T00:28:17.195Z,7.13
2023-05-04T00:30:44.237Z,4.00
2023-05-04T00:33:11.397Z,4.57
2023-05-04T00:35:40.044Z,3.80
2023-05-04T00:38:07.314Z,4.07
2023-05-04T00:40:35.288Z,3.30
2023-05-04T00:43:02.454Z,2.90
2023-05-04T00:45:29.329Z,3.15
2023-05-04T00:47:56.283Z,3.13
2023-05-04T00:50:23.229Z,2.97
2023-05-04T00:52:50.215Z,2.75
2023-05-04T00:55:17.155Z,2.58
2023-05-04T00:57:44.079Z,3.92
2023-05-04T01:00:13.294Z,3.15
2023-05-04T01:02:41.890Z,2.72
2023-05-04T01:05:10.346Z,2.20
2023-05-04T01:07:46.373Z,3.03
2023-05-04T01:10:17.776Z,3.03
2023-05-04T01:13:07.563Z,2.20
2023-05-04T01:15:35.202Z,2.72
2023-05-04T01:18:02.402Z,3.47
2023-05-04T01:20:29.489Z,3.67
2023-05-04T01:22:56.428Z,3.28
2023-05-04T01:25:25.066Z,3.38
2023-05-04T01:27:52.019Z,2.80
2023-05-04T01:30:43.697Z,2.88
2023-05-04T01:33:11.249Z,2.67
2023-05-04T01:35:38.318Z,3.65
2023-05-04T01:38:05.408Z,3.10
2023-05-04T01:40:32.672Z,4.05
2023-05-04T01:42:59.610Z,3.13
2023-05-04T01:45:27.073Z,3.67
2023-05-04T01:47:54.275Z,3.95
2023-05-04T01:50:21.268Z,2.97
2023-05-04T01:52:48.445Z,3.10
2023-05-04T01:55:15.680Z,3.65
2023-05-04T01:57:42.604Z,3.85
2023-05-04T02:00:10.255Z,3.30
2023-05-04T02:02:43.404Z,4.13
2023-05-04T02:05:12.705Z,3.63
2023-05-04T02:07:39.591Z,4.15
2023-05-04T02:10:08.757Z,3.60
2023-05-04T02:12:35.850Z,3.97
2023-05-04T02:15:03.458Z,3.85
2023-05-04T02:17:31.226Z,3.35
2023-05-04T02:19:58.641Z,4.57
2023-05-04T02:22:25.589Z,5.13
2023-05-04T02:24:53.232Z,4.35
2023-05-04T02:27:20.898Z,4.15
2023-05-04T02:29:48.385Z,4.55
2023-05-04T02:32:16.350Z,4.50
2023-05-04T02:34:43.267Z,4.32
2023-05-04T02:37:10.283Z,4.50
2023-05-04T02:39:37.229Z,3.70
2023-05-04T02:42:04.397Z,4.55
2023-05-04T02:44:31.458Z,4.47
2023-05-04T02:46:58.430Z,4.82
2023-05-04T02:49:25.390Z,4.30
2023-05-04T02:51:52.300Z,4.85
2023-05-04T02:54:19.230Z,4.55
2023-05-04T02:56:46.586Z,4.43
2023-05-04T02:59:13.675Z,4.78
2023-05-04T03:01:40.651Z,4.80
2023-05-04T03:04:07.759Z,4.72
2023-05-04T03:06:34.791Z,3.85
2023-05-04T03:09:01.730Z,4.82
2023-05-04T03:11:28.686Z,3.97
2023-05-04T03:13:56.746Z,5.40
2023-05-04T03:16:23.873Z,4.32
2023-05-04T03:18:51.388Z,4.38
2023-05-04T03:21:18.400Z,6.30
2023-05-04T03:23:46.048Z,5.60
2023-05-04T03:26:12.961Z,4.88
2023-05-04T03:28:39.910Z,6.03
2023-05-04T03:31:07.153Z,5.00
2023-05-04T03:33:34.346Z,5.30
2023-05-04T03:36:01.546Z,5.07
2023-05-04T03:38:28.756Z,6.10
2023-05-04T03:40:56.400Z,5.07
2023-05-04T03:43:23.780Z,4.60
2023-05-04T03:45:50.982Z,5.60
2023-05-04T03:48:18.063Z,5.20
2023-05-04T03:50:45.052Z,5.45
2023-05-04T03:53:12.170Z,5.43
2023-05-04T03:55:40.945Z,5.55
2023-05-04T03:58:07.886Z,5.95
2023-05-04T04:00:35.159Z,5.50
2023-05-04T04:03:10.146Z,5.90
2023-05-04T04:05:38.229Z,6.03
2023-05-04T04:08:05.451Z,6.22
2023-05-04T04:10:32.442Z,6.05
2023-05-04T04:12:59.540Z,6.07
2023-05-04T04:15:26.952Z,5.55
2023-05-04T04:17:54.002Z,6.25
2023-05-04T04:20:20.984Z,6.25
2023-05-04T04:22:48.399Z,4.97
2023-05-04T04:25:18.342Z,6.47
2023-05-04T04:27:45.334Z,6.40
2023-05-04T04:30:13.475Z,6.20
2023-05-04T04:32:40.522Z,7.65
2023-05-04T04:35:08.045Z,6.07
2023-05-04T04:37:35.152Z,6.93
2023-05-04T04:40:02.483Z,7.25
2023-05-04T04:42:29.526Z,6.50
2023-05-04T04:44:56.523Z,6.63
2023-05-04T04:47:23.460Z,6.32
2023-05-04T04:49:50.378Z,5.97
2023-05-04T04:52:18.128Z,7.13
2023-05-04T04:54:45.371Z,6.93
2023-05-04T04:57:12.351Z,6.30
2023-05-04T04:59:39.326Z,6.70
2023-05-04T05:02:06.330Z,5.72
2023-05-04T05:19:25.224Z,6.55
2023-05-04T05:22:04.072Z,6.45
2023-05-04T05:24:42.053Z,6.78
2023-05-04T05:27:23.945Z,7.65
2023-05-04T05:30:22.299Z,7.22
2023-05-04T05:35:42.168Z,7.25
2023-05-04T05:38:54.709Z,6.38
2023-05-04T05:42:10.427Z,6.72
2023-05-04T05:44:52.178Z,7.25
2023-05-04T05:47:30.602Z,6.40
2023-05-04T05:50:36.115Z,6.38
2023-05-04T05:53:17.761Z,6.40
2023-05-04T05:55:47.169Z,7.30
2023-05-04T05:58:14.281Z,7.18
2023-05-04T06:00:41.514Z,7.20
2023-05-04T06:03:08.735Z,6.90
2023-05-04T06:05:35.727Z,6.93
2023-05-04T06:08:02.738Z,7.32
2023-05-04T06:10:32.494Z,7.47
2023-05-04T06:12:59.967Z,6.60
2023-05-04T06:15:26.882Z,7.70
2023-05-04T06:17:53.962Z,7.40
2023-05-04T06:20:21.014Z,8.10
2023-05-04T06:22:48.237Z,6.68
2023-05-04T06:25:15.137Z,6.53
2023-05-04T06:27:42.156Z,5.82
2023-05-04T06:30:09.647Z,7.05
2023-05-04T06:32:36.983Z,6.20
2023-05-04T06:35:04.319Z,6.50
2023-05-04T06:37:31.367Z,6.03
2023-05-04T06:39:58.272Z,6.03
2023-05-04T06:42:25.205Z,6.00
2023-05-04T06:44:54.283Z,5.05
2023-05-04T06:47:21.333Z,5.47
2023-05-04T06:49:48.579Z,4.65
2023-05-04T06:52:15.520Z,5.95
2023-05-04T06:54:42.490Z,5.57
2023-05-04T06:57:12.870Z,5.68
2023-05-04T06:59:50.906Z,4.95
2023-05-04T07:02:18.829Z,4.78
2023-05-04T07:04:49.628Z,5.30
2023-05-04T07:07:16.710Z,5.03
2023-05-04T07:09:47.022Z,4.90
2023-05-04T07:12:14.387Z,4.97
2023-05-04T07:14:41.738Z,3.83
2023-05-04T07:17:10.279Z,4.47
2023-05-04T07:19:37.801Z,4.63
2023-05-04T07:22:04.983Z,4.82
2023-05-04T07:24:33.256Z,5.22
2023-05-04T07:27:02.087Z,4.53
2023-05-04T07:29:29.201Z,4.97
2023-05-04T07:31:56.353Z,4.60
2023-05-04T07:34:33.906Z,4.55
2023-05-04T07:37:09.311Z,3.97
2023-05-04T07:39:36.686Z,4.85
2023-05-04T07:42:04.121Z,4.95
2023-05-04T07:44:31.543Z,4.72
2023-05-04T07:46:59.193Z,4.30
2023-05-04T07:49:26.496Z,4.10
2023-05-04T07:51:53.772Z,5.97
2023-05-04T07:54:22.582Z,5.25
2023-05-04T07:56:50.558Z,4.55
2023-05-04T07:59:18.571Z,4.60
2023-05-04T08:01:46.554Z,4.43
2023-05-04T08:04:14.322Z,5.00
2023-05-04T08:06:41.715Z,4.82
2023-05-04T08:09:15.376Z,4.32
2023-05-04T08:11:42.583Z,3.80
2023-05-04T08:14:09.591Z,4.82
2023-05-04T08:16:37.812Z,4.20
2023-05-04T08:19:06.773Z,4.22
2023-05-04T08:21:34.370Z,4.38
2023-05-04T08:24:30.608Z,4.68
2023-05-04T08:27:07.167Z,3.57
2023-05-04T08:29:37.909Z,4.18
2023-05-04T08:32:05.944Z,4.45
2023-05-04T08:34:33.284Z,5.30
2023-05-04T08:37:02.388Z,4.18
2023-05-04T08:39:30.969Z,4.75
2023-05-04T08:41:57.901Z,3.85
2023-05-04T08:44:24.985Z,4.65
2023-05-04T08:46:53.951Z,3.92
2023-05-04T08:49:21.636Z,3.85
2023-05-04T08:51:50.433Z,3.90
2023-05-04T08:54:17.661Z,3.35
2023-05-04T08:56:48.002Z,4.00
2023-05-04T08:59:19.892Z,3.35
2023-05-04T09:01:50.736Z,4.35
2023-05-04T09:04:22.428Z,3.83
2023-05-04T09:06:49.623Z,4.03
2023-05-04T09:09:16.759Z,3.70
2023-05-04T09:11:44.687Z,4.75
2023-05-04T09:14:11.660Z,3.50
2023-05-04T09:16:38.848Z,3.13
2023-05-04T09:19:16.412Z,3.90
2023-05-04T09:21:44.373Z,3.97
2023-05-04T09:24:12.762Z,3.97
2023-05-04T09:26:44.789Z,3.63
2023-05-04T09:29:13.782Z,4.25
2023-05-04T09:31:50.462Z,4.13
2023-05-04T09:34:20.396Z,3.92
2023-05-04T09:37:02.073Z,3.78
2023-05-04T09:39:31.050Z,4.15
2023-05-04T09:41:58.017Z,4.05
2023-05-04T09:44:26.921Z,3.05
2023-05-04T09:46:58.691Z,3.10
2023-05-04T09:49:36.260Z,3.90
2023-05-04T09:52:05.049Z,3.40
2023-05-04T09:54:35.053Z,2.92
2023-05-04T09:57:17.932Z,4.97
2023-05-04T09:59:45.508Z,3.15
2023-05-04T10:02:22.472Z,3.55
2023-05-04T10:04:51.289Z,3.30
2023-05-04T10:07:20.588Z,2.85
2023-05-04T10:09:47.985Z,3.53
2023-05-04T10:12:14.983Z,3.30
2023-05-04T10:14:46.673Z,3.05
2023-05-04T10:17:28.809Z,4.03
2023-05-04T10:20:21.011Z,3.30
2023-05-04T10:23:00.128Z,3.53
2023-05-04T10:25:36.084Z,3.95
2023-05-04T10:30:42.914Z,3.25
2023-05-04T10:33:09.985Z,2.72
2023-05-04T10:40:38.297Z,3.17
2023-05-04T10:43:06.353Z,2.83
2023-05-04T10:45:37.421Z,3.10
2023-05-04T10:48:05.344Z,3.40
2023-05-04T10:50:49.589Z,4.03
2023-05-04T10:53:18.150Z,3.13
2023-05-04T10:55:46.464Z,3.55
2023-05-04T10:58:21.474Z,3.42
2023-05-04T11:00:51.646Z,2.75
2023-05-04T11:03:19.275Z,3.35
2023-05-04T11:05:48.448Z,2.83
2023-05-04T11:08:24.294Z,3.30
2023-05-04T11:13:34.327Z,2.65
2023-05-04T11:16:02.176Z,3.28
2023-05-04T11:18:37.516Z,3.33
2023-05-04T11:23:32.491Z,3.28
2023-05-04T11:26:09.263Z,3.72
2023-05-04T11:28:37.313Z,3.75
2023-05-04T11:31:24.698Z,3.67
2023-05-04T11:33:52.870Z,3.20
2023-05-04T11:36:20.059Z,3.53
2023-05-04T11:38:47.598Z,3.95
2023-05-04T11:41:19.664Z,3.58
2023-05-04T11:43:46.990Z,4.00
2023-05-04T11:46:14.060Z,3.70
2023-05-04T11:48:43.551Z,4.50
2023-05-04T11:51:14.073Z,3.70
2023-05-04T11:53:41.201Z,3.55
2023-05-04T11:56:10.875Z,4.25
2023-05-04T11:58:38.156Z,3.85
2023-05-04T12:01:05.268Z,4.60
2023-05-04T12:03:51.258Z,4.40
2023-05-04T12:06:30.363Z,4.45
2023-05-04T12:09:02.333Z,4.45
2023-05-04T12:11:29.909Z,4.82
2023-05-04T12:14:17.131Z,5.03
2023-05-04T12:16:57.596Z,3.88
2023-05-04T12:19:24.871Z,4.22
2023-05-04T12:21:53.954Z,5.05
2023-05-04T12:24:27.476Z,4.68
2023-05-04T12:26:56.149Z,5.13
2023-05-04T12:29:23.145Z,4.97
2023-05-04T12:31:50.191Z,4.93
2023-05-04T12:34:17.388Z,5.30
2023-05-04T12:36:45.005Z,6.35
2023-05-04T12:39:12.312Z,4.75
2023-05-04T12:41:40.175Z,5.03
2023-05-04T12:44:08.644Z,5.05
2023-05-04T12:46:35.799Z,4.88
2023-05-04T12:49:04.261Z,5.28
2023-05-04T12:51:32.286Z,5.00
2023-05-04T12:53:59.247Z,5.18
2023-05-04T12:56:26.357Z,4.97
2023-05-04T12:58:55.224Z,5.15
2023-05-04T13:01:22.474Z,5.53
2023-05-04T13:03:49.876Z,5.55
2023-05-04T13:06:16.977Z,5.63
2023-05-04T13:08:48.375Z,5.45
2023-05-04T13:11:20.050Z,5.75
2023-05-04T13:13:47.327Z,5.88
2023-05-04T13:16:17.250Z,5.32
2023-05-04T13:18:44.578Z,6.03
2023-05-04T13:21:11.924Z,6.15
2023-05-04T13:23:38.985Z,6.32
2023-05-04T13:26:11.664Z,4.97
2023-05-04T13:28:39.395Z,6.18
2023-05-04T13:31:08.094Z,6.00
2023-05-04T13:33:42.705Z,6.90
2023-05-04T13:36:11.727Z,6.03
2023-05-04T13:38:38.791Z,6.50
2023-05-04T13:41:05.714Z,6.50
2023-05-04T13:43:32.793Z,5.68
2023-05-04T13:46:03.962Z,6.00
2023-05-04T13:48:32.825Z,6.10
2023-05-04T13:50:59.841Z,5.75
2023-05-04T13:53:26.769Z,6.07
2023-05-04T13:55:53.761Z,6.28
2023-05-04T13:58:20.668Z,5.95
2023-05-04T14:00:47.694Z,6.15
2023-05-04T14:03:15.085Z,6.00
2023-05-04T14:05:42.475Z,6.55
2023-05-04T14:08:09.410Z,6.28
2023-05-04T14:10:37.528Z,6.53
2023-05-04T14:13:04.658Z,5.88
2023-05-04T14:15:32.106Z,5.95
2023-05-04T14:18:01.230Z,4.65
2023-05-04T14:20:28.441Z,5.65
2023-05-04T14:22:55.556Z,6.60
2023-05-04T14:25:22.781Z,5.93
2023-05-04T14:27:49.853Z,5.95
2023-05-04T14:30:17.013Z,6.07
2023-05-04T14:32:44.020Z,5.53
2023-05-04T14:35:11.153Z,6.05
2023-05-04T14:38:05.611Z,6.40
2023-05-04T14:40:32.596Z,6.32
2023-05-04T14:43:05.031Z,6.38
2023-05-04T14:45:33.757Z,6.63
2023-05-04T14:48:00.680Z,6.35
2023-05-04T14:50:27.879Z,6.03
2023-05-04T14:52:54.780Z,5.78
2023-05-04T14:55:21.735Z,5.93
2023-05-04T14:57:48.634Z,5.45
2023-05-04T15:00:17.234Z,6.15
2023-05-04T15:02:44.220Z,6.95
2023-05-04T15:05:12.682Z,6.38
2023-05-04T15:07:39.813Z,5.82
2023-05-04T15:10:08.512Z,5.82
2023-05-04T15:12:36.295Z,6.18
2023-05-04T15:15:03.610Z,6.72
2023-05-04T15:17:35.834Z,6.88
2023-05-04T15:20:03.299Z,6.60
2023-05-04T15:22:30.814Z,6.10
2023-05-04T15:24:57.958Z,6.00
2023-05-04T15:27:24.886Z,5.53
2023-05-04T15:29:51.851Z,6.72
2023-05-04T15:32:18.785Z,5.60
2023-05-04T15:34:50.904Z,5.55
2023-05-04T15:37:27.892Z,4.40
2023-05-04T15:39:56.104Z,4.75
2023-05-04T15:42:23.246Z,5.03
2023-05-04T15:44:51.035Z,6.22
2023-05-04T15:47:18.492Z,4.05
2023-05-04T15:50:16.656Z,3.20
2023-05-04T15:52:45.217Z,0.90
2023-05-04T15:55:25.203Z,0.93
2023-05-04T15:57:53.890Z,0.93
2023-05-04T16:00:21.544Z,1.13
2023-05-04T16:02:48.773Z,0.68
2023-05-04T16:05:15.782Z,0.52
2023-05-04T16:07:47.764Z,0.98
2023-05-04T16:10:17.050Z,0.50
2023-05-04T16:12:44.008Z,0.55
2023-05-04T16:15:11.352Z,0.38
2023-05-04T16:17:38.642Z,0.43
2023-05-04T16:20:06.544Z,0.40
2023-05-04T16:22:34.201Z,0.43
2023-05-04T16:25:02.545Z,0.20
2023-05-04T16:27:31.168Z,0.20
2023-05-04T16:29:59.453Z,0.50
2023-05-04T16:32:26.673Z,0.20
2023-05-04T16:34:53.794Z,0.30
2023-05-04T16:37:20.847Z,0.20
2023-05-04T16:39:47.732Z,1.42
2023-05-04T16:42:14.792Z,1.67
2023-05-04T16:44:41.993Z,0.32
2023-05-04T16:47:09.096Z,0.43
2023-05-04T16:49:35.996Z,0.77
2023-05-04T16:52:03.480Z,0.20
2023-05-04T16:54:31.772Z,0.30
2023-05-04T16:56:58.712Z,0.50
2023-05-04T16:59:25.986Z,1.02
2023-05-04T17:01:53.009Z,0.30
2023-05-04T17:04:25.788Z,0.60
2023-05-04T17:06:58.915Z,0.40
2023-05-04T17:09:28.307Z,0.20
2023-05-04T17:11:57.190Z,0.55
2023-05-04T17:14:25.324Z,0.50
2023-05-04T17:16:54.014Z,11.23
2023-05-04T17:19:22.891Z,1.35
2023-05-04T17:21:50.174Z,1.50
2023-05-04T17:24:18.363Z,2.80
2023-05-04T17:26:45.571Z,1.40
2023-05-04T17:29:12.839Z,2.92
2023-05-04T17:31:40.055Z,1.08
2023-05-04T17:34:07.156Z,10.77
2023-05-04T17:36:34.523Z,6.28
2023-05-04T17:39:01.536Z,1.80
2023-05-04T17:41:31.753Z,0.28
2023-05-04T17:43:59.056Z,0.40
2023-05-04T17:46:31.857Z,2.00
2023-05-04T17:48:59.226Z,20.30
2023-05-04T17:51:53.170Z,12.13
2023-05-04T17:54:20.181Z,7.47
2023-05-04T17:56:47.540Z,2.40
2023-05-04T17:59:20.438Z,0.32
2023-05-04T18:01:49.748Z,0.20
2023-05-04T18:04:16.925Z,0.55
2023-05-04T18:06:44.011Z,2.03
2023-05-04T18:09:37.676Z,0.25
2023-05-04T18:12:04.980Z,0.20
2023-05-04T18:14:32.295Z,0.85
2023-05-04T18:17:00.501Z,0.40
2023-05-04T18:19:28.085Z,0.38
2023-05-04T18:21:57.981Z,0.57
2023-05-04T18:24:25.481Z,0.80
2023-05-04T18:26:55.813Z,1.58
2023-05-04T18:29:22.948Z,0.35
2023-05-04T18:31:51.912Z,2.05
2023-05-04T18:34:19.129Z,25.33
2023-05-04T18:36:49.446Z,4.07
2023-05-04T18:39:16.496Z,1.10
2023-05-04T18:41:43.435Z,0.38
2023-05-04T18:44:16.522Z,0.60
2023-05-04T18:46:43.582Z,7.32
2023-05-04T18:49:15.963Z,9.55
2023-05-04T18:51:47.476Z,3.50
2023-05-04T18:54:16.108Z,1.45
2023-05-04T18:56:43.486Z,8.60
2023-05-04T18:59:10.860Z,0.63
2023-05-04T19:01:38.729Z,1.83
2023-05-04T19:04:06.583Z,2.42
2023-05-04T19:06:33.742Z,1.55
2023-05-04T19:09:01.180Z,0.52
2023-05-04T19:11:29.351Z,0.82
2023-05-04T19:13:56.489Z,0.45
2023-05-04T19:16:23.526Z,0.20
2023-05-04T19:18:50.841Z,0.50
2023-05-04T19:21:18.028Z,0.43
2023-05-04T19:23:44.977Z,0.30
2023-05-04T19:26:12.069Z,0.35
2023-05-04T19:28:40.137Z,0.30
2023-05-04T19:31:08.971Z,0.50
2023-05-04T19:33:48.013Z,0.65
2023-05-04T19:36:16.252Z,0.43
2023-05-04T19:38:43.555Z,0.30
2023-05-04T19:41:10.697Z,0.90
2023-05-04T19:43:38.804Z,0.45
2023-05-04T19:46:06.146Z,0.43
2023-05-04T19:48:33.308Z,0.85
2023-05-04T19:51:00.500Z,0.55
2023-05-04T19:53:27.648Z,0.55
2023-05-04T19:55:54.526Z,0.65
2023-05-04T19:58:25.849Z,0.68
2023-05-04T20:00:53.168Z,0.73
2023-05-04T20:03:21.469Z,0.47
2023-05-04T20:05:51.654Z,0.45
2023-05-04T20:08:20.299Z,0.63
2023-05-04T20:10:47.247Z,0.75
2023-05-04T20:13:14.840Z,0.30
2023-05-04T20:16:37.475Z,0.80
2023-05-04T20:19:04.611Z,0.77
2023-05-04T20:21:32.224Z,0.40
2023-05-04T20:23:59.169Z,0.70
2023-05-04T20:26:29.422Z,0.80
2023-05-04T20:28:56.979Z,0.63
2023-05-04T20:31:27.371Z,0.85
2023-05-04T20:33:54.590Z,0.50
2023-05-04T20:36:21.892Z,0.77
2023-05-04T20:38:49.392Z,0.82
2023-05-04T20:41:16.448Z,1.15
2023-05-04T20:43:43.584Z,0.60
2023-05-04T20:46:11.308Z,0.75
2023-05-04T20:48:38.310Z,0.85
2023-05-04T20:53:40.461Z,0.90
2023-05-04T20:56:07.438Z,0.80
2023-05-04T20:58:34.424Z,1.05
2023-05-04T21:01:04.812Z,1.27
2023-05-04T21:03:31.998Z,1.05
2023-05-04T21:06:00.359Z,1.25
2023-05-04T21:08:27.512Z,0.75
2023-05-04T21:10:54.555Z,1.40
2023-05-04T21:13:21.586Z,0.73
2023-05-04T21:15:48.888Z,1.15
2023-05-04T21:18:15.966Z,1.25
2023-05-04T21:20:43.424Z,1.65
2023-05-04T21:23:10.577Z,2.22
2023-05-04T21:25:37.586Z,1.15
2023-05-04T21:28:04.671Z,1.33
2023-05-04T21:30:31.730Z,2.35
2023-05-04T21:33:00.311Z,1.27
2023-05-04T21:35:30.875Z,1.70
2023-05-04T21:37:58.917Z,1.80
2023-05-04T21:40:27.419Z,1.27
2023-05-04T21:42:54.332Z,1.13
2023-05-04T21:45:21.320Z,1.67
2023-05-04T21:47:48.703Z,1.27
2023-05-04T21:50:16.269Z,1.05
2023-05-04T21:52:43.308Z,0.98
2023-05-04T21:55:10.191Z,0.90
2023-05-04T21:57:37.376Z,1.45
2023-05-04T22:00:11.818Z,1.05
2023-05-04T22:02:39.382Z,0.93
2023-05-04T22:05:12.718Z,0.85
2023-05-04T22:07:39.847Z,1.20
2023-05-04T22:10:07.972Z,0.47
2023-05-04T22:12:35.770Z,0.70
2023-05-04T22:15:03.575Z,0.68
2023-05-04T22:17:31.779Z,0.30
2023-05-04T22:19:59.129Z,0.20
2023-05-04T22:22:31.172Z,0.52
2023-05-04T22:25:02.511Z,0.52
2023-05-04T22:27:30.349Z,0.38
2023-05-04T22:29:57.356Z,0.50
2023-05-04T22:32:24.498Z,0.20
2023-05-04T22:34:51.345Z,0.28
2023-05-04T22:37:18.214Z,0.10
2023-05-04T22:40:12.518Z,0.00
2023-05-04T22:42:39.506Z,0.10
2023-05-04T22:45:07.013Z,0.00
2023-05-04T22:47:34.020Z,0.13
2023-05-04T22:50:00.920Z,0.10
2023-05-04T22:52:27.847Z,0.00
2023-05-04T22:54:54.879Z,0.13
2023-05-04T22:57:22.215Z,0.05
2023-05-04T22:59:49.140Z,0.05
2023-05-04T23:02:16.038Z,0.10
2023-05-04T23:04:43.816Z,0.00
2023-05-04T23:07:10.894Z,0.00
2023-05-04T23:09:45.239Z,0.00
2023-05-04T23:12:15.377Z,0.00
2023-05-04T23:14:42.347Z,0.00
2023-05-04T23:17:10.600Z,0.00
2023-05-04T23:19:37.580Z,0.00
2023-05-04T23:22:04.651Z,0.03
2023-05-04T23:24:31.737Z,0.00
2023-05-04T23:26:59.144Z,0.00
2023-05-04T23:29:26.295Z,0.00
2023-05-04T23:31:53.767Z,0.00
2023-05-04T23:34:21.416Z,0.00
2023-05-04T23:37:02.145Z,0.32
2023-05-04T23:40:04.093Z,0.25
2023-05-04T23:43:04.378Z,0.00
2023-05-04T23:45:31.344Z,0.00
2023-05-04T23:47:58.423Z,0.00
2023-05-04T23:50:25.338Z,0.00
2023-05-04T23:52:52.424Z,0.00
2023-05-04T23:55:19.387Z,0.00
2023-05-04T23:57:46.564Z,0.10
